sensor_id;sensor_type;location;lat;lon;timestamp;pressure;altitude;pressure_sealevel;temperature;humidity
72428;BME280;60419;48.880;18.036;2022-11-20T00:02:37;98686.63;;;0.34;64.67
72428;BME280;60419;48.880;18.036;2022-11-20T00:05:23;98690.47;;;0.04;66.90
72428;BME280;60419;48.880;18.036;2022-11-20T00:08:08;98701.19;;;0.53;65.54
72428;BME280;60419;48.880;18.036;2022-11-20T00:10:53;98704.81;;;0.91;64.44
72428;BME280;60419;48.880;18.036;2022-11-20T00:13:39;98711.34;;;1.32;62.93
72428;BME280;60419;48.880;18.036;2022-11-20T00:16:26;98683.78;;;1.49;61.65
72428;BME280;60419;48.880;18.036;2022-11-20T00:19:12;98707.63;;;1.06;62.35
72428;BME280;60419;48.880;18.036;2022-11-20T00:21:58;98687.59;;;0.05;65.76
72428;BME280;60419;48.880;18.036;2022-11-20T00:24:43;98711.66;;;0.87;63.99
72428;BME280;60419;48.880;18.036;2022-11-20T00:27:28;98718.09;;;1.18;62.97
72428;BME280;60419;48.880;18.036;2022-11-20T00:30:14;98700.50;;;1.12;62.70
72428;BME280;60419;48.880;18.036;2022-11-20T00:32:59;98709.06;;;0.04;65.47
72428;BME280;60419;48.880;18.036;2022-11-20T00:35:44;98699.78;;;-0.16;66.68
72428;BME280;60419;48.880;18.036;2022-11-20T00:38:31;98694.19;;;-0.14;66.82
72428;BME280;60419;48.880;18.036;2022-11-20T00:41:16;98690.19;;;0.44;65.60
72428;BME280;60419;48.880;18.036;2022-11-20T00:44:02;98697.16;;;0.50;65.56
72428;BME280;60419;48.880;18.036;2022-11-20T00:46:47;98688.03;;;1.17;64.02
72428;BME280;60419;48.880;18.036;2022-11-20T00:49:32;98686.72;;;1.52;62.51
72428;BME280;60419;48.880;18.036;2022-11-20T00:52:18;98694.44;;;1.91;61.62
72428;BME280;60419;48.880;18.036;2022-11-20T00:55:03;98691.66;;;2.13;60.57
72428;BME280;60419;48.880;18.036;2022-11-20T00:57:49;98681.75;;;1.61;61.45
72428;BME280;60419;48.880;18.036;2022-11-20T01:00:34;98684.63;;;1.97;60.94
72428;BME280;60419;48.880;18.036;2022-11-20T01:03:19;98678.63;;;2.22;59.96
72428;BME280;60419;48.880;18.036;2022-11-20T01:06:18;98687.50;;;1.48;61.43
72428;BME280;60419;48.880;18.036;2022-11-20T01:09:10;98687.78;;;1.51;62.24
72428;BME280;60419;48.880;18.036;2022-11-20T01:11:56;98705.72;;;1.61;62.69
72428;BME280;60419;48.880;18.036;2022-11-20T01:14:41;98695.00;;;1.93;61.92
72428;BME280;60419;48.880;18.036;2022-11-20T01:17:27;98694.78;;;2.00;61.82
72428;BME280;60419;48.880;18.036;2022-11-20T01:20:12;98690.47;;;1.24;64.11
72428;BME280;60419;48.880;18.036;2022-11-20T01:22:58;98689.16;;;0.94;64.65
72428;BME280;60419;48.880;18.036;2022-11-20T01:25:43;98699.31;;;-0.46;69.84
72428;BME280;60419;48.880;18.036;2022-11-20T01:28:29;98703.16;;;0.41;67.05
72428;BME280;60419;48.880;18.036;2022-11-20T01:31:24;98701.78;;;-0.06;68.48
72428;BME280;60419;48.880;18.036;2022-11-20T01:34:15;98711.41;;;-0.17;69.49
72428;BME280;60419;48.880;18.036;2022-11-20T01:37:01;98713.19;;;-0.22;69.59
72428;BME280;60419;48.880;18.036;2022-11-20T01:39:46;98723.47;;;-0.09;69.64
72428;BME280;60419;48.880;18.036;2022-11-20T01:42:32;98716.59;;;0.73;66.54
72428;BME280;60419;48.880;18.036;2022-11-20T01:49:00;98713.28;;;1.47;64.64
72428;BME280;60419;48.880;18.036;2022-11-20T01:52:13;98696.50;;;1.74;64.04
72428;BME280;60419;48.880;18.036;2022-11-20T01:55:08;98689.72;;;1.98;63.16
72428;BME280;60419;48.880;18.036;2022-11-20T01:57:54;98691.78;;;1.91;63.19
72428;BME280;60419;48.880;18.036;2022-11-20T02:00:40;98680.94;;;2.03;63.21
72428;BME280;60419;48.880;18.036;2022-11-20T02:03:26;98681.56;;;2.20;62.54
72428;BME280;60419;48.880;18.036;2022-11-20T02:06:17;98669.56;;;2.23;62.27
72428;BME280;60419;48.880;18.036;2022-11-20T02:09:04;98686.47;;;2.49;61.83
72428;BME280;60419;48.880;18.036;2022-11-20T02:11:49;98681.94;;;2.39;61.88
72428;BME280;60419;48.880;18.036;2022-11-20T02:14:36;98700.91;;;1.63;64.65
72428;BME280;60419;48.880;18.036;2022-11-20T02:17:22;98704.66;;;0.75;67.73
72428;BME280;60419;48.880;18.036;2022-11-20T02:20:08;98693.31;;;1.45;65.55
72428;BME280;60419;48.880;18.036;2022-11-20T02:25:42;98694.69;;;1.84;64.19
72428;BME280;60419;48.880;18.036;2022-11-20T02:28:29;98705.50;;;2.15;63.53
72428;BME280;60419;48.880;18.036;2022-11-20T02:31:14;98706.03;;;1.70;64.54
72428;BME280;60419;48.880;18.036;2022-11-20T02:34:00;98705.66;;;1.24;65.46
72428;BME280;60419;48.880;18.036;2022-11-20T02:36:46;98709.16;;;1.61;64.38
72428;BME280;60419;48.880;18.036;2022-11-20T02:39:32;98710.56;;;1.37;65.60
72428;BME280;60419;48.880;18.036;2022-11-20T02:42:17;98710.44;;;1.54;64.97
72428;BME280;60419;48.880;18.036;2022-11-20T02:45:05;98711.06;;;2.03;63.54
72428;BME280;60419;48.880;18.036;2022-11-20T02:47:51;98722.94;;;2.38;62.46
72428;BME280;60419;48.880;18.036;2022-11-20T02:50:37;98720.28;;;2.38;62.13
72428;BME280;60419;48.880;18.036;2022-11-20T02:53:24;98704.19;;;1.75;64.05
72428;BME280;60419;48.880;18.036;2022-11-20T02:56:09;98722.47;;;1.99;63.12
72428;BME280;60419;48.880;18.036;2022-11-20T02:58:55;98708.22;;;1.78;63.75
72428;BME280;60419;48.880;18.036;2022-11-20T03:01:40;98703.13;;;1.71;64.35
72428;BME280;60419;48.880;18.036;2022-11-20T03:04:26;98686.41;;;1.44;64.89
72428;BME280;60419;48.880;18.036;2022-11-20T03:07:11;98694.44;;;1.16;65.58
72428;BME280;60419;48.880;18.036;2022-11-20T03:09:56;98688.63;;;0.97;66.77
72428;BME280;60419;48.880;18.036;2022-11-20T03:12:42;98699.66;;;-0.04;70.36
72428;BME280;60419;48.880;18.036;2022-11-20T03:15:27;98711.94;;;0.85;67.67
72428;BME280;60419;48.880;18.036;2022-11-20T03:18:13;98716.16;;;1.35;66.52
72428;BME280;60419;48.880;18.036;2022-11-20T03:20:58;98712.56;;;0.48;68.45
72428;BME280;60419;48.880;18.036;2022-11-20T03:23:44;98714.84;;;0.84;67.65
72428;BME280;60419;48.880;18.036;2022-11-20T03:26:29;98714.31;;;1.09;66.68
72428;BME280;60419;48.880;18.036;2022-11-20T03:29:15;98714.25;;;-0.23;71.40
72428;BME280;60419;48.880;18.036;2022-11-20T03:32:00;98707.97;;;0.66;68.68
72428;BME280;60419;48.880;18.036;2022-11-20T03:34:46;98706.41;;;0.92;67.70
72428;BME280;60419;48.880;18.036;2022-11-20T03:37:31;98699.94;;;1.42;65.89
72428;BME280;60419;48.880;18.036;2022-11-20T03:40:17;98700.34;;;1.56;65.27
72428;BME280;60419;48.880;18.036;2022-11-20T03:43:02;98702.38;;;1.81;64.68
72428;BME280;60419;48.880;18.036;2022-11-20T03:45:47;98693.94;;;0.70;66.98
72428;BME280;60419;48.880;18.036;2022-11-20T03:48:33;98691.25;;;0.92;67.77
72428;BME280;60419;48.880;18.036;2022-11-20T03:51:24;98695.31;;;1.00;67.66
72428;BME280;60419;48.880;18.036;2022-11-20T03:54:10;98701.22;;;1.34;66.15
72428;BME280;60419;48.880;18.036;2022-11-20T03:56:56;98697.13;;;0.94;67.46
72428;BME280;60419;48.880;18.036;2022-11-20T03:59:41;98690.81;;;0.07;70.60
72428;BME280;60419;48.880;18.036;2022-11-20T04:02:27;98698.22;;;0.05;70.98
72428;BME280;60419;48.880;18.036;2022-11-20T04:05:12;98696.81;;;-0.19;71.48
72428;BME280;60419;48.880;18.036;2022-11-20T04:07:57;98684.31;;;0.64;68.84
72428;BME280;60419;48.880;18.036;2022-11-20T04:10:43;98677.84;;;1.09;67.37
72428;BME280;60419;48.880;18.036;2022-11-20T04:13:28;98667.25;;;0.87;67.61
72428;BME280;60419;48.880;18.036;2022-11-20T04:16:15;98668.19;;;0.27;70.22
72428;BME280;60419;48.880;18.036;2022-11-20T04:19:03;98667.47;;;-0.46;72.56
72428;BME280;60419;48.880;18.036;2022-11-20T04:21:49;98675.97;;;-0.27;72.42
72428;BME280;60419;48.880;18.036;2022-11-20T04:24:34;98680.13;;;-0.15;71.72
72428;BME280;60419;48.880;18.036;2022-11-20T04:27:20;98641.66;;;-0.12;71.54
72428;BME280;60419;48.880;18.036;2022-11-20T04:30:06;98668.88;;;0.17;70.51
72428;BME280;60419;48.880;18.036;2022-11-20T04:32:51;98662.09;;;1.03;68.49
72428;BME280;60419;48.880;18.036;2022-11-20T04:35:37;98659.66;;;0.96;68.46
72428;BME280;60419;48.880;18.036;2022-11-20T04:38:22;98661.16;;;1.14;66.93
72428;BME280;60419;48.880;18.036;2022-11-20T04:41:14;98667.13;;;0.50;69.55
72428;BME280;60419;48.880;18.036;2022-11-20T04:44:01;98662.59;;;1.00;67.78
72428;BME280;60419;48.880;18.036;2022-11-20T04:46:49;98664.00;;;1.39;66.72
72428;BME280;60419;48.880;18.036;2022-11-20T04:49:35;98652.53;;;1.71;65.46
72428;BME280;60419;48.880;18.036;2022-11-20T04:52:20;98651.19;;;1.36;66.25
72428;BME280;60419;48.880;18.036;2022-11-20T04:55:07;98640.38;;;0.57;68.70
72428;BME280;60419;48.880;18.036;2022-11-20T04:57:52;98633.25;;;0.62;69.49
72428;BME280;60419;48.880;18.036;2022-11-20T05:00:38;98630.41;;;0.96;68.29
72428;BME280;60419;48.880;18.036;2022-11-20T05:03:23;98623.72;;;0.39;69.74
72428;BME280;60419;48.880;18.036;2022-11-20T05:06:10;98618.84;;;-0.13;71.83
72428;BME280;60419;48.880;18.036;2022-11-20T05:08:56;98611.75;;;-0.46;73.42
72428;BME280;60419;48.880;18.036;2022-11-20T05:11:42;98599.06;;;-0.95;75.91
72428;BME280;60419;48.880;18.036;2022-11-20T05:14:27;98598.09;;;-0.72;75.26
72428;BME280;60419;48.880;18.036;2022-11-20T05:17:13;98577.47;;;-1.04;75.95
72428;BME280;60419;48.880;18.036;2022-11-20T05:19:58;98599.84;;;-0.44;73.64
72428;BME280;60419;48.880;18.036;2022-11-20T05:22:44;98600.94;;;-0.01;72.68
72428;BME280;60419;48.880;18.036;2022-11-20T05:25:29;98589.22;;;-0.44;74.32
72428;BME280;60419;48.880;18.036;2022-11-20T05:28:15;98586.75;;;-0.50;75.05
72428;BME280;60419;48.880;18.036;2022-11-20T05:31:11;98592.09;;;-0.06;73.56
72428;BME280;60419;48.880;18.036;2022-11-20T05:33:57;98576.66;;;-0.31;74.25
72428;BME280;60419;48.880;18.036;2022-11-20T05:36:42;98599.13;;;-0.56;75.77
72428;BME280;60419;48.880;18.036;2022-11-20T05:39:28;98594.34;;;0.02;73.87
72428;BME280;60419;48.880;18.036;2022-11-20T05:42:13;98584.00;;;0.55;72.11
72428;BME280;60419;48.880;18.036;2022-11-20T05:45:16;98590.22;;;-0.28;74.96
72428;BME280;60419;48.880;18.036;2022-11-20T05:48:02;98583.75;;;-0.15;74.80
72428;BME280;60419;48.880;18.036;2022-11-20T05:50:48;98596.28;;;-0.10;73.96
72428;BME280;60419;48.880;18.036;2022-11-20T05:53:34;98581.19;;;-0.49;76.11
72428;BME280;60419;48.880;18.036;2022-11-20T05:56:21;98586.91;;;-0.18;75.53
72428;BME280;60419;48.880;18.036;2022-11-20T05:59:06;98593.75;;;0.22;73.41
72428;BME280;60419;48.880;18.036;2022-11-20T06:01:51;98589.03;;;0.02;74.11
72428;BME280;60419;48.880;18.036;2022-11-20T06:04:37;98577.31;;;-0.41;75.99
72428;BME280;60419;48.880;18.036;2022-11-20T06:07:22;98582.69;;;-0.14;75.18
72428;BME280;60419;48.880;18.036;2022-11-20T06:10:08;98593.75;;;0.22;74.22
72428;BME280;60419;48.880;18.036;2022-11-20T06:12:57;98593.22;;;0.47;73.32
72428;BME280;60419;48.880;18.036;2022-11-20T06:15:51;98593.00;;;0.26;74.17
72428;BME280;60419;48.880;18.036;2022-11-20T06:18:37;98606.34;;;0.59;73.64
72428;BME280;60419;48.880;18.036;2022-11-20T06:21:22;98610.75;;;0.70;72.92
72428;BME280;60419;48.880;18.036;2022-11-20T06:24:11;98614.09;;;0.33;73.58
72428;BME280;60419;48.880;18.036;2022-11-20T06:26:57;98598.09;;;0.28;73.42
72428;BME280;60419;48.880;18.036;2022-11-20T06:29:42;98603.94;;;0.84;71.92
72428;BME280;60419;48.880;18.036;2022-11-20T06:32:28;98618.78;;;1.07;71.05
72428;BME280;60419;48.880;18.036;2022-11-20T06:35:13;98629.81;;;1.58;69.52
72428;BME280;60419;48.880;18.036;2022-11-20T06:37:58;98619.03;;;1.85;68.43
72428;BME280;60419;48.880;18.036;2022-11-20T06:40:44;98605.06;;;2.16;67.58
72428;BME280;60419;48.880;18.036;2022-11-20T06:43:29;98624.63;;;2.42;66.84
72428;BME280;60419;48.880;18.036;2022-11-20T06:46:16;98626.75;;;2.40;66.08
72428;BME280;60419;48.880;18.036;2022-11-20T06:49:04;98637.41;;;2.45;65.70
72428;BME280;60419;48.880;18.036;2022-11-20T06:51:50;98618.00;;;1.92;67.44
72428;BME280;60419;48.880;18.036;2022-11-20T06:54:36;98636.22;;;2.15;66.73
72428;BME280;60419;48.880;18.036;2022-11-20T06:57:21;98640.25;;;2.23;66.99
72428;BME280;60419;48.880;18.036;2022-11-20T07:00:07;98651.00;;;1.85;67.76
72428;BME280;60419;48.880;18.036;2022-11-20T07:02:53;98650.75;;;1.87;67.38
72428;BME280;60419;48.880;18.036;2022-11-20T07:05:38;98656.56;;;1.09;69.88
72428;BME280;60419;48.880;18.036;2022-11-20T07:08:25;98656.25;;;1.06;70.68
72428;BME280;60419;48.880;18.036;2022-11-20T07:11:13;98652.06;;;0.56;72.32
72428;BME280;60419;48.880;18.036;2022-11-20T07:13:59;98653.84;;;-0.33;75.39
72428;BME280;60419;48.880;18.036;2022-11-20T07:16:44;98657.53;;;-0.17;75.82
72428;BME280;60419;48.880;18.036;2022-11-20T07:19:29;98644.69;;;0.63;73.00
72428;BME280;60419;48.880;18.036;2022-11-20T07:22:15;98642.84;;;1.23;70.74
72428;BME280;60419;48.880;18.036;2022-11-20T07:25:00;98642.03;;;1.54;69.58
72428;BME280;60419;48.880;18.036;2022-11-20T07:27:46;98650.34;;;1.68;69.02
72428;BME280;60419;48.880;18.036;2022-11-20T07:30:32;98649.75;;;1.98;67.85
72428;BME280;60419;48.880;18.036;2022-11-20T07:33:17;98652.16;;;2.00;68.07
72428;BME280;60419;48.880;18.036;2022-11-20T07:36:03;98647.25;;;2.34;66.86
72428;BME280;60419;48.880;18.036;2022-11-20T07:38:48;98650.63;;;1.67;68.21
72428;BME280;60419;48.880;18.036;2022-11-20T07:41:34;98636.44;;;1.98;66.99
72428;BME280;60419;48.880;18.036;2022-11-20T07:44:19;98628.03;;;2.27;66.28
72428;BME280;60419;48.880;18.036;2022-11-20T07:47:04;98635.94;;;2.12;66.20
72428;BME280;60419;48.880;18.036;2022-11-20T07:49:50;98639.97;;;2.19;66.63
72428;BME280;60419;48.880;18.036;2022-11-20T07:52:35;98617.53;;;2.10;66.10
72428;BME280;60419;48.880;18.036;2022-11-20T07:55:20;98662.44;;;2.28;66.86
72428;BME280;60419;48.880;18.036;2022-11-20T07:58:06;98659.78;;;2.39;66.54
72428;BME280;60419;48.880;18.036;2022-11-20T08:00:51;98666.94;;;2.33;66.77
72428;BME280;60419;48.880;18.036;2022-11-20T08:03:37;98652.50;;;2.14;66.73
72428;BME280;60419;48.880;18.036;2022-11-20T08:06:25;98668.16;;;2.05;67.46
72428;BME280;60419;48.880;18.036;2022-11-20T08:09:10;98668.34;;;1.88;68.38
72428;BME280;60419;48.880;18.036;2022-11-20T08:11:55;98661.44;;;1.92;68.22
72428;BME280;60419;48.880;18.036;2022-11-20T08:14:59;98669.41;;;2.45;67.38
72428;BME280;60419;48.880;18.036;2022-11-20T08:17:44;98666.25;;;1.95;68.54
72428;BME280;60419;48.880;18.036;2022-11-20T08:20:30;98668.81;;;2.33;67.05
72428;BME280;60419;48.880;18.036;2022-11-20T08:23:15;98684.41;;;2.66;66.15
72428;BME280;60419;48.880;18.036;2022-11-20T08:26:01;98678.28;;;2.71;65.64
72428;BME280;60419;48.880;18.036;2022-11-20T08:28:46;98672.84;;;4.45;84.00
72428;BME280;60419;48.880;18.036;2022-11-20T08:31:32;98681.28;;;3.87;67.68
72428;BME280;60419;48.880;18.036;2022-11-20T08:34:17;98691.34;;;2.72;66.54
72428;BME280;60419;48.880;18.036;2022-11-20T08:37:02;98695.31;;;2.65;67.56
72428;BME280;60419;48.880;18.036;2022-11-20T08:39:48;98698.19;;;2.43;68.05
72428;BME280;60419;48.880;18.036;2022-11-20T08:42:33;98710.00;;;1.67;71.03
72428;BME280;60419;48.880;18.036;2022-11-20T08:45:19;98705.06;;;1.86;71.50
72428;BME280;60419;48.880;18.036;2022-11-20T08:48:05;98694.78;;;2.00;70.88
72428;BME280;60419;48.880;18.036;2022-11-20T08:50:50;98698.06;;;2.17;71.05
72428;BME280;60419;48.880;18.036;2022-11-20T08:53:35;98695.88;;;2.09;70.35
72428;BME280;60419;48.880;18.036;2022-11-20T08:56:21;98689.41;;;1.90;71.16
72428;BME280;60419;48.880;18.036;2022-11-20T08:59:06;98689.09;;;2.39;69.90
72428;BME280;60419;48.880;18.036;2022-11-20T09:01:52;98687.72;;;2.26;70.35
72428;BME280;60419;48.880;18.036;2022-11-20T09:04:37;98686.31;;;2.08;70.26
72428;BME280;60419;48.880;18.036;2022-11-20T09:07:23;98688.66;;;2.04;71.50
72428;BME280;60419;48.880;18.036;2022-11-20T09:10:08;98688.31;;;2.43;70.92
72428;BME280;60419;48.880;18.036;2022-11-20T09:12:55;98681.16;;;1.96;72.15
72428;BME280;60419;48.880;18.036;2022-11-20T09:15:40;98692.44;;;2.09;72.24
72428;BME280;60419;48.880;18.036;2022-11-20T09:18:28;98684.47;;;2.14;71.63
72428;BME280;60419;48.880;18.036;2022-11-20T09:21:13;98680.19;;;2.18;72.00
72428;BME280;60419;48.880;18.036;2022-11-20T09:23:59;98679.22;;;1.87;72.50
72428;BME280;60419;48.880;18.036;2022-11-20T09:26:45;98674.66;;;2.24;72.26
72428;BME280;60419;48.880;18.036;2022-11-20T09:29:31;98685.25;;;4.80;89.48
72428;BME280;60419;48.880;18.036;2022-11-20T09:32:16;98687.72;;;3.66;70.61
72428;BME280;60419;48.880;18.036;2022-11-20T09:35:02;98686.13;;;3.24;69.22
72428;BME280;60419;48.880;18.036;2022-11-20T09:37:47;98682.63;;;3.08;68.91
72428;BME280;60419;48.880;18.036;2022-11-20T09:40:35;98678.38;;;3.12;67.43
72428;BME280;60419;48.880;18.036;2022-11-20T09:55:39;98653.53;;;2.81;69.75
72428;BME280;60419;48.880;18.036;2022-11-20T09:58:35;98665.03;;;3.07;68.92
72428;BME280;60419;48.880;18.036;2022-11-20T10:01:30;98662.59;;;2.90;71.04
72428;BME280;60419;48.880;18.036;2022-11-20T10:04:19;98661.31;;;3.23;71.38
72428;BME280;60419;48.880;18.036;2022-11-20T10:07:30;98677.88;;;3.41;74.15
72428;BME280;60419;48.880;18.036;2022-11-20T10:16:32;98674.06;;;2.95;70.37
72428;BME280;60419;48.880;18.036;2022-11-20T10:26:17;98676.19;;;2.83;72.33
72428;BME280;60419;48.880;18.036;2022-11-20T10:29:18;98670.59;;;2.90;72.49
72428;BME280;60419;48.880;18.036;2022-11-20T10:32:16;98677.22;;;2.72;71.63
72428;BME280;60419;48.880;18.036;2022-11-20T10:38:04;98675.69;;;3.68;68.92
72428;BME280;60419;48.880;18.036;2022-11-20T10:40:57;98664.22;;;3.11;70.10
72428;BME280;60419;48.880;18.036;2022-11-20T10:44:11;98646.06;;;2.98;71.09
72428;BME280;60419;48.880;18.036;2022-11-20T10:46:58;98660.22;;;3.24;70.58
72428;BME280;60419;48.880;18.036;2022-11-20T10:49:54;98651.97;;;3.41;69.10
72428;BME280;60419;48.880;18.036;2022-11-20T10:53:13;98670.34;;;2.91;71.07
72428;BME280;60419;48.880;18.036;2022-11-20T10:56:05;98666.88;;;2.96;70.96
72428;BME280;60419;48.880;18.036;2022-11-20T11:05:38;98661.31;;;3.44;69.70
72428;BME280;60419;48.880;18.036;2022-11-20T11:08:28;98659.97;;;3.15;70.34
72428;BME280;60419;48.880;18.036;2022-11-20T11:14:11;98631.13;;;2.97;70.57
72428;BME280;60419;48.880;18.036;2022-11-20T11:16:57;98644.22;;;3.19;69.64
72428;BME280;60419;48.880;18.036;2022-11-20T11:19:43;98648.13;;;2.60;71.48
72428;BME280;60419;48.880;18.036;2022-11-20T11:22:30;98654.31;;;2.76;71.78
72428;BME280;60419;48.880;18.036;2022-11-20T11:25:36;98649.44;;;2.47;72.28
72428;BME280;60419;48.880;18.036;2022-11-20T11:28:22;98654.56;;;2.01;73.52
72428;BME280;60419;48.880;18.036;2022-11-20T11:31:22;98647.44;;;2.17;73.64
72428;BME280;60419;48.880;18.036;2022-11-20T11:34:14;98638.41;;;2.23;73.38
72428;BME280;60419;48.880;18.036;2022-11-20T11:37:00;98622.16;;;2.30;73.17
72428;BME280;60419;48.880;18.036;2022-11-20T11:39:48;98622.50;;;2.59;72.94
72428;BME280;60419;48.880;18.036;2022-11-20T11:42:33;98611.06;;;2.69;71.15
72428;BME280;60419;48.880;18.036;2022-11-20T11:45:19;98611.81;;;2.49;73.11
72428;BME280;60419;48.880;18.036;2022-11-20T11:48:08;98615.53;;;2.38;72.89
72428;BME280;60419;48.880;18.036;2022-11-20T11:50:54;98614.69;;;2.27;74.04
72428;BME280;60419;48.880;18.036;2022-11-20T11:53:41;98582.31;;;1.93;74.34
72428;BME280;60419;48.880;18.036;2022-11-20T11:56:28;98605.50;;;1.92;74.72
72428;BME280;60419;48.880;18.036;2022-11-20T11:59:25;98602.94;;;2.23;76.10
72428;BME280;60419;48.880;18.036;2022-11-20T12:02:29;98610.44;;;2.36;74.99
72428;BME280;60419;48.880;18.036;2022-11-20T12:05:49;98618.00;;;2.65;75.54
72428;BME280;60419;48.880;18.036;2022-11-20T12:08:49;98606.78;;;2.58;74.41
72428;BME280;60419;48.880;18.036;2022-11-20T12:14:43;98599.75;;;2.16;75.05
72428;BME280;60419;48.880;18.036;2022-11-20T12:17:31;98605.38;;;2.29;74.91
72428;BME280;60419;48.880;18.036;2022-11-20T12:20:16;98610.75;;;2.45;74.40
72428;BME280;60419;48.880;18.036;2022-11-20T12:23:10;98609.47;;;2.63;73.68
72428;BME280;60419;48.880;18.036;2022-11-20T12:26:06;98611.03;;;2.54;74.33
72428;BME280;60419;48.880;18.036;2022-11-20T12:43:57;98617.19;;;2.59;73.62
72428;BME280;60419;48.880;18.036;2022-11-20T12:53:51;98604.16;;;2.68;73.82
72428;BME280;60419;48.880;18.036;2022-11-20T12:59:27;98599.09;;;2.77;73.08
72428;BME280;60419;48.880;18.036;2022-11-20T13:02:37;98589.75;;;2.89;73.39
72428;BME280;60419;48.880;18.036;2022-11-20T13:05:59;98597.50;;;3.01;72.73
72428;BME280;60419;48.880;18.036;2022-11-20T13:08:55;98600.66;;;2.67;73.90
72428;BME280;60419;48.880;18.036;2022-11-20T13:14:55;98585.50;;;2.73;73.88
72428;BME280;60419;48.880;18.036;2022-11-20T13:18:04;98599.34;;;2.90;73.19
72428;BME280;60419;48.880;18.036;2022-11-20T13:20:52;98604.16;;;2.68;73.82
72428;BME280;60419;48.880;18.036;2022-11-20T13:23:38;98602.13;;;2.17;75.11
72428;BME280;60419;48.880;18.036;2022-11-20T13:26:23;98592.53;;;2.11;75.52
72428;BME280;60419;48.880;18.036;2022-11-20T13:29:12;98588.59;;;2.29;75.47
72428;BME280;60419;48.880;18.036;2022-11-20T13:32:06;98594.22;;;2.43;74.87
72428;BME280;60419;48.880;18.036;2022-11-20T13:35:03;98597.72;;;2.54;74.52
72428;BME280;60419;48.880;18.036;2022-11-20T13:38:04;98599.06;;;2.61;74.11
72428;BME280;60419;48.880;18.036;2022-11-20T13:40:58;98587.84;;;2.54;74.25
72428;BME280;60419;48.880;18.036;2022-11-20T13:43:44;98599.81;;;2.41;74.73
72428;BME280;60419;48.880;18.036;2022-11-20T13:46:44;98589.25;;;3.08;73.09
72428;BME280;60419;48.880;18.036;2022-11-20T13:49:37;98576.69;;;2.93;73.30
72428;BME280;60419;48.880;18.036;2022-11-20T14:02:21;98566.56;;;2.90;74.03
72428;BME280;60419;48.880;18.036;2022-11-20T14:05:20;98572.94;;;2.58;75.87
72428;BME280;60419;48.880;18.036;2022-11-20T14:08:14;98577.47;;;2.99;75.09
72428;BME280;60419;48.880;18.036;2022-11-20T14:14:04;98571.81;;;2.44;76.04
72428;BME280;60419;48.880;18.036;2022-11-20T14:17:19;98570.53;;;2.77;75.16
72428;BME280;60419;48.880;18.036;2022-11-20T14:20:11;98541.47;;;2.91;74.25
72428;BME280;60419;48.880;18.036;2022-11-20T14:22:57;98540.06;;;3.45;72.87
72428;BME280;60419;48.880;18.036;2022-11-20T14:25:44;98551.34;;;3.06;73.98
72428;BME280;60419;48.880;18.036;2022-11-20T14:28:30;98551.53;;;3.55;72.50
72428;BME280;60419;48.880;18.036;2022-11-20T14:31:24;98563.56;;;3.43;71.99
72428;BME280;60419;48.880;18.036;2022-11-20T14:34:25;98548.22;;;3.84;70.40
72428;BME280;60419;48.880;18.036;2022-11-20T14:37:13;98550.78;;;2.93;73.24
72428;BME280;60419;48.880;18.036;2022-11-20T14:40:22;98563.34;;;2.57;75.07
72428;BME280;60419;48.880;18.036;2022-11-20T14:43:23;98560.66;;;2.57;75.28
72428;BME280;60419;48.880;18.036;2022-11-20T14:46:09;98560.97;;;2.86;74.19
72428;BME280;60419;48.880;18.036;2022-11-20T14:48:56;98553.72;;;2.66;74.99
72428;BME280;60419;48.880;18.036;2022-11-20T14:51:45;98559.31;;;2.49;75.63
72428;BME280;60419;48.880;18.036;2022-11-20T14:54:31;98552.41;;;3.00;74.33
72428;BME280;60419;48.880;18.036;2022-11-20T15:02:56;98559.59;;;2.68;75.15
72428;BME280;60419;48.880;18.036;2022-11-20T15:05:47;98532.41;;;2.87;74.19
72428;BME280;60419;48.880;18.036;2022-11-20T15:08:34;98535.88;;;2.98;74.46
72428;BME280;60419;48.880;18.036;2022-11-20T15:11:23;98555.09;;;3.15;73.37
72428;BME280;60419;48.880;18.036;2022-11-20T15:14:10;98546.78;;;3.16;73.66
72428;BME280;60419;48.880;18.036;2022-11-20T15:16:56;98534.00;;;2.67;75.29
72428;BME280;60419;48.880;18.036;2022-11-20T15:19:41;98534.78;;;2.99;74.09
72428;BME280;60419;48.880;18.036;2022-11-20T15:22:27;98541.72;;;3.35;73.38
72428;BME280;60419;48.880;18.036;2022-11-20T15:25:17;98535.06;;;3.28;73.88
72428;BME280;60419;48.880;18.036;2022-11-20T15:28:04;98504.41;;;2.89;74.63
72428;BME280;60419;48.880;18.036;2022-11-20T15:30:50;98517.91;;;3.49;73.09
72428;BME280;60419;48.880;18.036;2022-11-20T15:33:35;98522.88;;;3.76;72.42
72428;BME280;60419;48.880;18.036;2022-11-20T15:36:21;98534.22;;;3.27;73.71
72428;BME280;60419;48.880;18.036;2022-11-20T15:39:07;98530.94;;;3.56;72.07
72428;BME280;60419;48.880;18.036;2022-11-20T15:41:52;98537.75;;;3.07;73.79
72428;BME280;60419;48.880;18.036;2022-11-20T15:44:37;98535.63;;;2.84;75.25
72428;BME280;60419;48.880;18.036;2022-11-20T15:47:27;98535.06;;;2.82;75.75
72428;BME280;60419;48.880;18.036;2022-11-20T15:50:16;98538.28;;;3.04;75.00
72428;BME280;60419;48.880;18.036;2022-11-20T15:53:02;98545.47;;;2.99;75.25
72428;BME280;60419;48.880;18.036;2022-11-20T15:55:48;98528.66;;;2.98;77.50
72428;BME280;60419;48.880;18.036;2022-11-20T15:58:33;98542.25;;;3.17;74.47
72428;BME280;60419;48.880;18.036;2022-11-20T16:01:21;98539.31;;;3.19;74.48
72428;BME280;60419;48.880;18.036;2022-11-20T16:04:15;98525.41;;;3.42;73.78
72428;BME280;60419;48.880;18.036;2022-11-20T16:07:01;98537.44;;;3.19;74.39
72428;BME280;60419;48.880;18.036;2022-11-20T16:09:46;98533.16;;;3.44;73.44
72428;BME280;60419;48.880;18.036;2022-11-20T16:12:31;98535.06;;;3.23;75.01
72428;BME280;60419;48.880;18.036;2022-11-20T16:15:35;98535.53;;;3.40;73.85
72428;BME280;60419;48.880;18.036;2022-11-20T16:18:31;98536.41;;;3.10;74.71
72428;BME280;60419;48.880;18.036;2022-11-20T16:21:17;98528.88;;;3.37;74.14
72428;BME280;60419;48.880;18.036;2022-11-20T16:24:04;98532.59;;;3.52;73.99
72428;BME280;60419;48.880;18.036;2022-11-20T16:26:50;98522.50;;;3.33;74.22